Terminal Aerodrome Forecast
Issued by NWS

Home | Current Version | Previous Version | Text Only | Print | Product List | Glossary On
Versions: 1 2 3 4 5 6 7 8 9 10 11 12 13 14 15 16 17 18
936
FTPA31 PHFO 262340
TAFHTO
TAF
PHTO 262340Z 2700/2724 12009KT P6SM FEW025 SCT040
     FM270600 24006KT P6SM SCT025 BKN045
     FM271800 12009KT P6SM FEW025 SCT040=

USA.gov is the U.S. government's official web portal to all federal, state and local government web resources and services.